createdAt,value
2023-07-07T00:01:16.813Z,13.1
2023-07-07T00:11:17.029Z,13
2023-07-07T00:21:17.228Z,12.9
2023-07-07T00:31:17.474Z,12.9
2023-07-07T00:41:17.610Z,12.8
2023-07-07T00:51:17.836Z,12.7
2023-07-07T01:51:19.016Z,12
2023-07-07T04:31:22.250Z,11.6
2023-07-07T04:41:22.474Z,11.9
2023-07-07T04:51:22.591Z,12.4
2023-07-07T05:01:22.817Z,12.9
2023-07-07T05:11:22.999Z,13.6
2023-07-07T05:21:23.187Z,14.4
2023-07-07T05:31:23.421Z,15.3
2023-07-07T05:41:23.673Z,16.2
2023-07-07T05:51:23.790Z,16.9
2023-07-07T06:01:23.995Z,17.4
2023-07-07T06:21:24.378Z,18.4
2023-07-07T06:31:24.616Z,19.1
2023-07-07T06:41:24.789Z,19.9
2023-07-07T06:51:24.963Z,20.4
2023-07-07T07:01:25.180Z,20.8
2023-07-07T07:11:25.418Z,21.3
2023-07-07T07:21:25.553Z,22
2023-07-07T07:41:25.956Z,22.8
2023-07-07T07:51:35.942Z,23.5
2023-07-07T08:01:26.425Z,23.6
2023-07-07T08:11:26.542Z,23.9
2023-07-07T08:21:26.739Z,24.2
2023-07-07T08:31:26.989Z,24.3
2023-07-07T08:41:27.145Z,24.3
2023-07-07T08:51:27.332Z,24.7
2023-07-07T09:01:27.548Z,25.3
2023-07-07T09:11:27.758Z,25.6
2023-07-07T09:21:27.910Z,25.7
2023-07-07T09:31:28.104Z,25.7
2023-07-07T09:41:28.301Z,25.9
2023-07-07T10:01:28.756Z,26.4
2023-07-07T10:21:29.126Z,26.3
2023-07-07T10:31:29.336Z,26.2
2023-07-07T10:41:29.469Z,26.5
2023-07-07T10:51:29.668Z,26.9
2023-07-07T11:01:29.883Z,27
2023-07-07T11:11:30.059Z,27.2
2023-07-07T11:21:30.259Z,27.7
2023-07-07T11:31:30.470Z,28.1
2023-07-07T11:41:30.651Z,27.7
2023-07-07T11:51:30.858Z,28.6
2023-07-07T12:01:31.051Z,28.8
2023-07-07T12:31:31.650Z,29.7
2023-07-07T12:41:31.834Z,29.5
2023-07-07T12:51:32.056Z,29.7
2023-07-07T13:41:33.012Z,29.9
2023-07-07T14:01:33.404Z,30.2
2023-07-07T14:11:33.624Z,29.8
2023-07-07T14:31:33.988Z,30.2
2023-07-07T14:41:34.190Z,30.5
2023-07-07T14:51:34.940Z,30.9
2023-07-07T15:01:34.645Z,30.9
2023-07-07T15:11:35.064Z,30.8
2023-07-07T15:21:34.969Z,31.1
2023-07-07T15:31:35.216Z,31.1
2023-07-07T15:41:35.641Z,31.1
2023-07-07T15:51:35.578Z,31
2023-07-07T16:01:35.765Z,31.2
2023-07-07T16:11:35.953Z,30.5
2023-07-07T16:21:36.190Z,30.9
2023-07-07T16:31:36.707Z,29.9
2023-07-07T16:41:36.559Z,29.5
2023-07-07T16:51:36.771Z,29.5
2023-07-07T17:01:36.987Z,29.2
2023-07-07T17:11:37.140Z,28.8
2023-07-07T17:21:37.378Z,28.6
2023-07-07T17:31:37.539Z,28.4
2023-07-07T17:41:37.715Z,28.2
2023-07-07T17:51:37.931Z,28.1
2023-07-07T18:01:38.167Z,28
2023-07-07T18:11:38.309Z,27.9
2023-07-07T21:01:41.661Z,22.7
2023-07-07T21:21:42.036Z,22.9
2023-07-07T21:41:43.787Z,22.6
2023-07-07T22:01:42.878Z,21.9
2023-07-07T22:21:43.230Z,21.5
2023-07-07T22:31:43.398Z,21.5
2023-07-07T22:41:43.600Z,21.2
2023-07-07T22:51:43.834Z,21
2023-07-07T23:01:44.019Z,20.7
2023-07-07T23:11:44.227Z,20.3
2023-07-07T23:21:44.381Z,19.9
2023-07-07T23:31:44.580Z,19.6
2023-07-07T23:41:44.777Z,19.4
2023-07-07T23:51:44.965Z,19.3
